sensor_id;sensor_type;location;lat;lon;timestamp;P1;durP1;ratioP1;P2;durP2;ratioP2
9140;SDS011;46330;50.822;7.126;2024-03-23T00:53:52;18.98;;;6.97;;
9140;SDS011;46330;50.822;7.126;2024-03-23T00:56:19;19.05;;;7.93;;
9140;SDS011;46330;50.822;7.126;2024-03-23T00:58:45;22.17;;;8.00;;
9140;SDS011;46330;50.822;7.126;2024-03-23T01:01:12;16.10;;;7.22;;
9140;SDS011;46330;50.822;7.126;2024-03-23T01:03:38;15.35;;;7.13;;
9140;SDS011;46330;50.822;7.126;2024-03-23T01:06:05;22.27;;;7.72;;
9140;SDS011;46330;50.822;7.126;2024-03-23T01:08:31;19.75;;;7.72;;
9140;SDS011;46330;50.822;7.126;2024-03-23T01:11:00;18.48;;;8.10;;
9140;SDS011;46330;50.822;7.126;2024-03-23T01:13:27;13.57;;;7.15;;
9140;SDS011;46330;50.822;7.126;2024-03-23T01:15:55;23.02;;;8.10;;
9140;SDS011;46330;50.822;7.126;2024-03-23T01:18:22;17.52;;;8.10;;
9140;SDS011;46330;50.822;7.126;2024-03-23T01:20:51;18.08;;;7.25;;
9140;SDS011;46330;50.822;7.126;2024-03-23T01:23:17;15.77;;;7.00;;
9140;SDS011;46330;50.822;7.126;2024-03-23T01:25:51;14.38;;;7.78;;
9140;SDS011;46330;50.822;7.126;2024-03-23T01:28:19;16.90;;;7.60;;
9140;SDS011;46330;50.822;7.126;2024-03-23T01:30:46;22.85;;;7.70;;
9140;SDS011;46330;50.822;7.126;2024-03-23T01:33:12;14.23;;;7.68;;
9140;SDS011;46330;50.822;7.126;2024-03-23T01:35:39;15.88;;;6.70;;
9140;SDS011;46330;50.822;7.126;2024-03-23T01:40:32;19.60;;;6.07;;
9140;SDS011;46330;50.822;7.126;2024-03-23T01:42:58;10.95;;;4.95;;
9140;SDS011;46330;50.822;7.126;2024-03-23T01:45:31;16.17;;;6.55;;
9140;SDS011;46330;50.822;7.126;2024-03-23T01:47:57;18.60;;;6.47;;
9140;SDS011;46330;50.822;7.126;2024-03-23T01:50:25;14.88;;;6.43;;
9140;SDS011;46330;50.822;7.126;2024-03-23T01:52:53;13.43;;;6.38;;
9140;SDS011;46330;50.822;7.126;2024-03-23T01:55:19;14.43;;;6.97;;
9140;SDS011;46330;50.822;7.126;2024-03-23T01:57:46;19.15;;;7.18;;
9140;SDS011;46330;50.822;7.126;2024-03-23T02:00:13;18.02;;;7.55;;
9140;SDS011;46330;50.822;7.126;2024-03-23T02:02:43;13.00;;;6.30;;
9140;SDS011;46330;50.822;7.126;2024-03-23T02:05:10;8.43;;;4.05;;
9140;SDS011;46330;50.822;7.126;2024-03-23T02:07:38;6.22;;;3.05;;
9140;SDS011;46330;50.822;7.126;2024-03-23T02:10:06;9.98;;;3.67;;
9140;SDS011;46330;50.822;7.126;2024-03-23T02:12:33;5.40;;;2.70;;
9140;SDS011;46330;50.822;7.126;2024-03-23T02:14:59;6.03;;;2.80;;
9140;SDS011;46330;50.822;7.126;2024-03-23T02:17:26;6.45;;;3.03;;
9140;SDS011;46330;50.822;7.126;2024-03-23T02:19:54;5.47;;;2.80;;
9140;SDS011;46330;50.822;7.126;2024-03-23T02:22:22;9.75;;;2.58;;
9140;SDS011;46330;50.822;7.126;2024-03-23T02:24:49;6.70;;;2.42;;
9140;SDS011;46330;50.822;7.126;2024-03-23T02:27:16;9.23;;;2.83;;
9140;SDS011;46330;50.822;7.126;2024-03-23T02:32:09;6.35;;;2.50;;
9140;SDS011;46330;50.822;7.126;2024-03-23T02:37:02;7.18;;;2.30;;
9140;SDS011;46330;50.822;7.126;2024-03-23T02:39:28;7.40;;;2.97;;
9140;SDS011;46330;50.822;7.126;2024-03-23T02:41:56;7.13;;;2.40;;
9140;SDS011;46330;50.822;7.126;2024-03-23T02:44:22;5.90;;;1.73;;
9140;SDS011;46330;50.822;7.126;2024-03-23T02:46:49;4.63;;;2.00;;
9140;SDS011;46330;50.822;7.126;2024-03-23T02:51:42;5.57;;;1.83;;
9140;SDS011;46330;50.822;7.126;2024-03-23T02:54:10;4.43;;;2.20;;
9140;SDS011;46330;50.822;7.126;2024-03-23T02:56:37;4.50;;;2.20;;
9140;SDS011;46330;50.822;7.126;2024-03-23T03:01:31;6.20;;;2.35;;
9140;SDS011;46330;50.822;7.126;2024-03-23T03:03:57;9.00;;;2.33;;
9140;SDS011;46330;50.822;7.126;2024-03-23T03:06:24;6.22;;;2.10;;
9140;SDS011;46330;50.822;7.126;2024-03-23T03:08:51;5.55;;;2.40;;
9140;SDS011;46330;50.822;7.126;2024-03-23T03:11:18;9.60;;;2.70;;
9140;SDS011;46330;50.822;7.126;2024-03-23T03:13:45;8.20;;;2.72;;
9140;SDS011;46330;50.822;7.126;2024-03-23T03:16:13;6.97;;;2.97;;
9140;SDS011;46330;50.822;7.126;2024-03-23T03:18:39;7.05;;;3.20;;
9140;SDS011;46330;50.822;7.126;2024-03-23T03:21:06;8.93;;;3.85;;
9140;SDS011;46330;50.822;7.126;2024-03-23T03:23:36;8.73;;;3.10;;
9140;SDS011;46330;50.822;7.126;2024-03-23T03:26:03;8.68;;;2.78;;
9140;SDS011;46330;50.822;7.126;2024-03-23T03:28:30;5.28;;;2.58;;
9140;SDS011;46330;50.822;7.126;2024-03-23T03:30:58;9.18;;;3.30;;
9140;SDS011;46330;50.822;7.126;2024-03-23T03:35:52;7.90;;;2.90;;
9140;SDS011;46330;50.822;7.126;2024-03-23T03:40:45;5.13;;;2.10;;
9140;SDS011;46330;50.822;7.126;2024-03-23T03:43:11;7.10;;;2.47;;
9140;SDS011;46330;50.822;7.126;2024-03-23T03:45:38;4.28;;;2.25;;
9140;SDS011;46330;50.822;7.126;2024-03-23T03:50:32;5.97;;;1.98;;
9140;SDS011;46330;50.822;7.126;2024-03-23T03:52:59;7.13;;;2.28;;
9140;SDS011;46330;50.822;7.126;2024-03-23T03:55:30;6.25;;;2.08;;
9140;SDS011;46330;50.822;7.126;2024-03-23T03:57:56;8.23;;;2.55;;
9140;SDS011;46330;50.822;7.126;2024-03-23T04:00:23;11.07;;;3.13;;
9140;SDS011;46330;50.822;7.126;2024-03-23T04:05:16;7.25;;;2.40;;
9140;SDS011;46330;50.822;7.126;2024-03-23T04:07:43;7.20;;;2.28;;
9140;SDS011;46330;50.822;7.126;2024-03-23T04:10:10;7.80;;;2.70;;
9140;SDS011;46330;50.822;7.126;2024-03-23T04:15:03;9.35;;;2.95;;
9140;SDS011;46330;50.822;7.126;2024-03-23T04:17:30;10.77;;;2.38;;
9140;SDS011;46330;50.822;7.126;2024-03-23T04:19:59;9.07;;;3.58;;
9140;SDS011;46330;50.822;7.126;2024-03-23T04:22:26;7.40;;;2.95;;
9140;SDS011;46330;50.822;7.126;2024-03-23T04:24:55;12.45;;;3.03;;
9140;SDS011;46330;50.822;7.126;2024-03-23T04:27:22;9.25;;;2.67;;
9140;SDS011;46330;50.822;7.126;2024-03-23T04:29:49;9.15;;;3.30;;
9140;SDS011;46330;50.822;7.126;2024-03-23T04:32:15;7.90;;;3.03;;
9140;SDS011;46330;50.822;7.126;2024-03-23T04:34:43;8.50;;;3.05;;
9140;SDS011;46330;50.822;7.126;2024-03-23T04:37:09;7.55;;;2.95;;
9140;SDS011;46330;50.822;7.126;2024-03-23T04:39:37;5.43;;;2.40;;
9140;SDS011;46330;50.822;7.126;2024-03-23T04:42:06;6.82;;;2.65;;
9140;SDS011;46330;50.822;7.126;2024-03-23T04:44:33;7.90;;;2.45;;
9140;SDS011;46330;50.822;7.126;2024-03-23T04:47:00;7.25;;;2.40;;
9140;SDS011;46330;50.822;7.126;2024-03-23T04:49:27;9.05;;;2.30;;
9140;SDS011;46330;50.822;7.126;2024-03-23T04:51:55;7.93;;;2.17;;
9140;SDS011;46330;50.822;7.126;2024-03-23T04:54:22;8.25;;;2.05;;
9140;SDS011;46330;50.822;7.126;2024-03-23T04:56:49;6.50;;;1.85;;
9140;SDS011;46330;50.822;7.126;2024-03-23T04:59:18;9.00;;;2.17;;
9140;SDS011;46330;50.822;7.126;2024-03-23T05:01:44;5.88;;;1.70;;
9140;SDS011;46330;50.822;7.126;2024-03-23T05:04:10;4.28;;;2.15;;
9140;SDS011;46330;50.822;7.126;2024-03-23T05:09:03;7.93;;;1.98;;
9140;SDS011;46330;50.822;7.126;2024-03-23T05:11:31;9.02;;;1.92;;
9140;SDS011;46330;50.822;7.126;2024-03-23T05:13:58;7.68;;;1.98;;
9140;SDS011;46330;50.822;7.126;2024-03-23T05:16:26;8.93;;;1.80;;
9140;SDS011;46330;50.822;7.126;2024-03-23T05:18:53;5.88;;;1.85;;
9140;SDS011;46330;50.822;7.126;2024-03-23T05:21:19;11.85;;;3.00;;
9140;SDS011;46330;50.822;7.126;2024-03-23T05:23:46;12.52;;;2.67;;
9140;SDS011;46330;50.822;7.126;2024-03-23T05:26:13;10.18;;;2.22;;
9140;SDS011;46330;50.822;7.126;2024-03-23T05:28:40;8.50;;;2.35;;
9140;SDS011;46330;50.822;7.126;2024-03-23T05:33:36;9.70;;;2.05;;
9140;SDS011;46330;50.822;7.126;2024-03-23T05:36:03;8.20;;;1.85;;
9140;SDS011;46330;50.822;7.126;2024-03-23T05:38:31;6.30;;;2.30;;
9140;SDS011;46330;50.822;7.126;2024-03-23T05:43:25;10.30;;;1.88;;
9140;SDS011;46330;50.822;7.126;2024-03-23T05:45:54;10.75;;;2.58;;
9140;SDS011;46330;50.822;7.126;2024-03-23T05:48:21;8.60;;;2.50;;
9140;SDS011;46330;50.822;7.126;2024-03-23T05:50:49;8.77;;;1.73;;
9140;SDS011;46330;50.822;7.126;2024-03-23T05:53:17;10.35;;;2.00;;
9140;SDS011;46330;50.822;7.126;2024-03-23T05:55:43;9.10;;;1.83;;
9140;SDS011;46330;50.822;7.126;2024-03-23T05:58:10;10.25;;;3.70;;
9140;SDS011;46330;50.822;7.126;2024-03-23T06:03:03;11.02;;;2.05;;
9140;SDS011;46330;50.822;7.126;2024-03-23T06:05:30;13.07;;;2.03;;
9140;SDS011;46330;50.822;7.126;2024-03-23T06:07:58;9.10;;;1.80;;
9140;SDS011;46330;50.822;7.126;2024-03-23T06:10:24;11.35;;;2.22;;
9140;SDS011;46330;50.822;7.126;2024-03-23T06:12:51;6.43;;;1.75;;
9140;SDS011;46330;50.822;7.126;2024-03-23T06:15:17;5.57;;;1.90;;
9140;SDS011;46330;50.822;7.126;2024-03-23T06:17:45;10.25;;;2.00;;
9140;SDS011;46330;50.822;7.126;2024-03-23T06:20:11;7.53;;;2.20;;
9140;SDS011;46330;50.822;7.126;2024-03-23T06:22:39;9.98;;;1.75;;
9140;SDS011;46330;50.822;7.126;2024-03-23T06:25:07;7.97;;;2.10;;
9140;SDS011;46330;50.822;7.126;2024-03-23T06:27:34;7.72;;;1.83;;
9140;SDS011;46330;50.822;7.126;2024-03-23T06:30:00;7.55;;;2.35;;
9140;SDS011;46330;50.822;7.126;2024-03-23T06:32:28;4.45;;;1.80;;
9140;SDS011;46330;50.822;7.126;2024-03-23T06:34:54;7.57;;;2.15;;
9140;SDS011;46330;50.822;7.126;2024-03-23T06:37:21;8.30;;;2.80;;
9140;SDS011;46330;50.822;7.126;2024-03-23T06:42:16;6.10;;;2.35;;
9140;SDS011;46330;50.822;7.126;2024-03-23T06:44:42;13.82;;;4.32;;
9140;SDS011;46330;50.822;7.126;2024-03-23T06:47:10;9.95;;;3.40;;
9140;SDS011;46330;50.822;7.126;2024-03-23T06:52:03;10.73;;;2.70;;
9140;SDS011;46330;50.822;7.126;2024-03-23T06:54:29;8.00;;;2.25;;
9140;SDS011;46330;50.822;7.126;2024-03-23T06:56:56;4.85;;;1.60;;
9140;SDS011;46330;50.822;7.126;2024-03-23T07:01:50;7.60;;;1.95;;
9140;SDS011;46330;50.822;7.126;2024-03-23T07:04:16;12.85;;;2.45;;
9140;SDS011;46330;50.822;7.126;2024-03-23T07:06:44;10.45;;;1.90;;
9140;SDS011;46330;50.822;7.126;2024-03-23T07:09:10;4.90;;;1.92;;
9140;SDS011;46330;50.822;7.126;2024-03-23T07:11:37;9.20;;;2.22;;
9140;SDS011;46330;50.822;7.126;2024-03-23T07:14:03;7.60;;;2.10;;
9140;SDS011;46330;50.822;7.126;2024-03-23T07:16:32;8.45;;;2.40;;
9140;SDS011;46330;50.822;7.126;2024-03-23T07:18:58;6.68;;;1.92;;
9140;SDS011;46330;50.822;7.126;2024-03-23T07:21:25;6.60;;;1.98;;
9140;SDS011;46330;50.822;7.126;2024-03-23T07:23:51;9.10;;;2.70;;
9140;SDS011;46330;50.822;7.126;2024-03-23T07:26:18;4.80;;;1.75;;
9140;SDS011;46330;50.822;7.126;2024-03-23T07:28:44;11.43;;;3.53;;
9140;SDS011;46330;50.822;7.126;2024-03-23T07:31:12;6.63;;;2.60;;
9140;SDS011;46330;50.822;7.126;2024-03-23T07:33:43;9.48;;;2.72;;
9140;SDS011;46330;50.822;7.126;2024-03-23T07:36:11;9.07;;;2.65;;
9140;SDS011;46330;50.822;7.126;2024-03-23T07:38:37;10.98;;;2.47;;
9140;SDS011;46330;50.822;7.126;2024-03-23T07:41:07;7.15;;;2.40;;
9140;SDS011;46330;50.822;7.126;2024-03-23T07:43:35;10.88;;;3.40;;
9140;SDS011;46330;50.822;7.126;2024-03-23T07:46:03;10.88;;;2.75;;
9140;SDS011;46330;50.822;7.126;2024-03-23T07:48:29;10.10;;;2.80;;
9140;SDS011;46330;50.822;7.126;2024-03-23T07:51:01;8.75;;;3.25;;
9140;SDS011;46330;50.822;7.126;2024-03-23T07:53:29;11.70;;;3.08;;
9140;SDS011;46330;50.822;7.126;2024-03-23T07:55:57;12.18;;;3.00;;
9140;SDS011;46330;50.822;7.126;2024-03-23T07:58:23;9.98;;;2.88;;
9140;SDS011;46330;50.822;7.126;2024-03-23T08:00:50;10.57;;;3.08;;
9140;SDS011;46330;50.822;7.126;2024-03-23T08:03:17;11.82;;;3.40;;
9140;SDS011;46330;50.822;7.126;2024-03-23T08:05:44;10.40;;;3.90;;
9140;SDS011;46330;50.822;7.126;2024-03-23T08:08:11;9.75;;;3.80;;
9140;SDS011;46330;50.822;7.126;2024-03-23T08:10:46;10.52;;;3.95;;
9140;SDS011;46330;50.822;7.126;2024-03-23T08:13:13;13.65;;;3.88;;
9140;SDS011;46330;50.822;7.126;2024-03-23T08:15:40;10.48;;;3.85;;
9140;SDS011;46330;50.822;7.126;2024-03-23T08:18:06;9.82;;;4.20;;
9140;SDS011;46330;50.822;7.126;2024-03-23T08:20:33;6.25;;;2.95;;
9140;SDS011;46330;50.822;7.126;2024-03-23T08:22:59;8.48;;;3.10;;
9140;SDS011;46330;50.822;7.126;2024-03-23T08:25:30;6.65;;;2.45;;
9140;SDS011;46330;50.822;7.126;2024-03-23T08:27:56;6.63;;;2.20;;
9140;SDS011;46330;50.822;7.126;2024-03-23T08:30:23;4.35;;;2.17;;
9140;SDS011;46330;50.822;7.126;2024-03-23T08:32:49;5.80;;;1.80;;
9140;SDS011;46330;50.822;7.126;2024-03-23T08:35:16;4.82;;;1.60;;
9140;SDS011;46330;50.822;7.126;2024-03-23T08:37:42;6.28;;;1.70;;
9140;SDS011;46330;50.822;7.126;2024-03-23T08:40:09;6.30;;;1.75;;
9140;SDS011;46330;50.822;7.126;2024-03-23T08:42:37;5.57;;;1.67;;
9140;SDS011;46330;50.822;7.126;2024-03-23T08:45:04;5.30;;;2.00;;
9140;SDS011;46330;50.822;7.126;2024-03-23T08:47:34;8.00;;;2.20;;
9140;SDS011;46330;50.822;7.126;2024-03-23T08:50:01;10.45;;;2.42;;
9140;SDS011;46330;50.822;7.126;2024-03-23T08:52:27;7.50;;;3.75;;
9140;SDS011;46330;50.822;7.126;2024-03-23T08:54:55;6.10;;;2.75;;
9140;SDS011;46330;50.822;7.126;2024-03-23T08:57:21;9.23;;;2.75;;
9140;SDS011;46330;50.822;7.126;2024-03-23T08:59:50;7.68;;;3.20;;
9140;SDS011;46330;50.822;7.126;2024-03-23T09:02:16;11.50;;;3.80;;
9140;SDS011;46330;50.822;7.126;2024-03-23T09:04:43;8.10;;;3.58;;
9140;SDS011;46330;50.822;7.126;2024-03-23T09:07:10;9.05;;;3.30;;
9140;SDS011;46330;50.822;7.126;2024-03-23T09:09:37;8.57;;;3.50;;
9140;SDS011;46330;50.822;7.126;2024-03-23T09:12:04;6.93;;;2.95;;
9140;SDS011;46330;50.822;7.126;2024-03-23T09:14:32;7.72;;;3.10;;
9140;SDS011;46330;50.822;7.126;2024-03-23T09:17:00;6.90;;;3.28;;
9140;SDS011;46330;50.822;7.126;2024-03-23T09:19:28;10.93;;;3.47;;
9140;SDS011;46330;50.822;7.126;2024-03-23T09:21:54;9.90;;;3.63;;
9140;SDS011;46330;50.822;7.126;2024-03-23T09:24:21;6.80;;;3.50;;
9140;SDS011;46330;50.822;7.126;2024-03-23T09:26:47;9.73;;;3.85;;
9140;SDS011;46330;50.822;7.126;2024-03-23T09:29:14;10.48;;;3.88;;
9140;SDS011;46330;50.822;7.126;2024-03-23T09:31:40;10.05;;;3.47;;
9140;SDS011;46330;50.822;7.126;2024-03-23T09:34:08;9.68;;;3.40;;
9140;SDS011;46330;50.822;7.126;2024-03-23T09:36:35;7.95;;;3.33;;
9140;SDS011;46330;50.822;7.126;2024-03-23T09:39:02;10.55;;;3.00;;
9140;SDS011;46330;50.822;7.126;2024-03-23T09:41:29;8.68;;;2.85;;
9140;SDS011;46330;50.822;7.126;2024-03-23T09:43:56;5.93;;;2.78;;
9140;SDS011;46330;50.822;7.126;2024-03-23T09:46:22;8.27;;;2.53;;
9140;SDS011;46330;50.822;7.126;2024-03-23T09:49:00;8.88;;;2.90;;
9140;SDS011;46330;50.822;7.126;2024-03-23T09:51:31;8.55;;;3.10;;
9140;SDS011;46330;50.822;7.126;2024-03-23T09:53:58;11.85;;;2.85;;
9140;SDS011;46330;50.822;7.126;2024-03-23T09:56:24;7.05;;;2.10;;
9140;SDS011;46330;50.822;7.126;2024-03-23T09:58:51;7.47;;;2.05;;
9140;SDS011;46330;50.822;7.126;2024-03-23T10:01:26;8.13;;;2.53;;
9140;SDS011;46330;50.822;7.126;2024-03-23T10:03:53;5.75;;;2.28;;
9140;SDS011;46330;50.822;7.126;2024-03-23T10:06:21;8.63;;;2.03;;
9140;SDS011;46330;50.822;7.126;2024-03-23T10:08:51;6.53;;;2.00;;
9140;SDS011;46330;50.822;7.126;2024-03-23T10:11:18;6.13;;;1.70;;
9140;SDS011;46330;50.822;7.126;2024-03-23T10:13:46;6.43;;;1.73;;
9140;SDS011;46330;50.822;7.126;2024-03-23T10:16:20;4.97;;;1.52;;
9140;SDS011;46330;50.822;7.126;2024-03-23T10:18:48;7.03;;;1.85;;
9140;SDS011;46330;50.822;7.126;2024-03-23T10:21:14;5.30;;;1.92;;
9140;SDS011;46330;50.822;7.126;2024-03-23T10:23:43;3.17;;;1.33;;
9140;SDS011;46330;50.822;7.126;2024-03-23T10:26:15;5.13;;;1.70;;
9140;SDS011;46330;50.822;7.126;2024-03-23T10:28:50;7.25;;;1.75;;
9140;SDS011;46330;50.822;7.126;2024-03-23T10:31:17;8.35;;;1.83;;
9140;SDS011;46330;50.822;7.126;2024-03-23T10:33:45;11.38;;;2.28;;
9140;SDS011;46330;50.822;7.126;2024-03-23T10:36:12;6.82;;;1.40;;
9140;SDS011;46330;50.822;7.126;2024-03-23T10:41:07;4.70;;;1.65;;
9140;SDS011;46330;50.822;7.126;2024-03-23T10:43:37;4.50;;;1.30;;
9140;SDS011;46330;50.822;7.126;2024-03-23T10:46:04;6.85;;;1.15;;
9140;SDS011;46330;50.822;7.126;2024-03-23T10:48:31;3.15;;;1.13;;
9140;SDS011;46330;50.822;7.126;2024-03-23T10:50:58;3.70;;;0.80;;
9140;SDS011;46330;50.822;7.126;2024-03-23T10:53:25;3.22;;;1.10;;
9140;SDS011;46330;50.822;7.126;2024-03-23T10:55:52;1.17;;;0.65;;
9140;SDS011;46330;50.822;7.126;2024-03-23T10:58:21;1.38;;;0.75;;
9140;SDS011;46330;50.822;7.126;2024-03-23T11:00:53;2.95;;;0.70;;
9140;SDS011;46330;50.822;7.126;2024-03-23T11:03:30;4.63;;;0.70;;
9140;SDS011;46330;50.822;7.126;2024-03-23T11:05:57;1.90;;;0.65;;
9140;SDS011;46330;50.822;7.126;2024-03-23T11:08:32;2.22;;;0.90;;
9140;SDS011;46330;50.822;7.126;2024-03-23T11:11:12;1.80;;;0.85;;
9140;SDS011;46330;50.822;7.126;2024-03-23T11:13:40;2.60;;;1.00;;
9140;SDS011;46330;50.822;7.126;2024-03-23T11:16:17;3.65;;;1.00;;
9140;SDS011;46330;50.822;7.126;2024-03-23T11:18:48;4.22;;;0.90;;
9140;SDS011;46330;50.822;7.126;2024-03-23T11:24:19;3.75;;;1.13;;
9140;SDS011;46330;50.822;7.126;2024-03-23T11:26:46;4.85;;;1.42;;
9140;SDS011;46330;50.822;7.126;2024-03-23T11:29:13;4.22;;;1.30;;
9140;SDS011;46330;50.822;7.126;2024-03-23T11:31:46;14.93;;;3.38;;
9140;SDS011;46330;50.822;7.126;2024-03-23T11:34:15;4.75;;;1.55;;
9140;SDS011;46330;50.822;7.126;2024-03-23T11:36:41;5.22;;;1.45;;
9140;SDS011;46330;50.822;7.126;2024-03-23T11:39:12;5.43;;;1.50;;
9140;SDS011;46330;50.822;7.126;2024-03-23T11:41:45;4.40;;;1.83;;
9140;SDS011;46330;50.822;7.126;2024-03-23T11:44:16;5.43;;;2.03;;
9140;SDS011;46330;50.822;7.126;2024-03-23T11:46:43;7.70;;;2.33;;
9140;SDS011;46330;50.822;7.126;2024-03-23T11:49:22;3.40;;;1.50;;
9140;SDS011;46330;50.822;7.126;2024-03-23T11:51:48;5.10;;;1.60;;
9140;SDS011;46330;50.822;7.126;2024-03-23T11:54:16;4.00;;;1.42;;
9140;SDS011;46330;50.822;7.126;2024-03-23T11:56:55;4.82;;;1.60;;
9140;SDS011;46330;50.822;7.126;2024-03-23T11:59:30;2.95;;;1.30;;
9140;SDS011;46330;50.822;7.126;2024-03-23T12:01:57;4.85;;;1.50;;
9140;SDS011;46330;50.822;7.126;2024-03-23T12:04:28;5.15;;;1.83;;
9140;SDS011;46330;50.822;7.126;2024-03-23T12:07:13;6.55;;;2.30;;
9140;SDS011;46330;50.822;7.126;2024-03-23T12:09:43;4.85;;;1.50;;
9140;SDS011;46330;50.822;7.126;2024-03-23T12:12:11;7.05;;;1.92;;
9140;SDS011;46330;50.822;7.126;2024-03-23T12:14:42;5.25;;;1.80;;
9140;SDS011;46330;50.822;7.126;2024-03-23T12:17:09;6.50;;;1.88;;
9140;SDS011;46330;50.822;7.126;2024-03-23T12:19:38;9.02;;;2.10;;
9140;SDS011;46330;50.822;7.126;2024-03-23T12:22:04;3.40;;;1.17;;
9140;SDS011;46330;50.822;7.126;2024-03-23T12:24:32;3.42;;;1.20;;
9140;SDS011;46330;50.822;7.126;2024-03-23T12:27:00;3.33;;;0.95;;
9140;SDS011;46330;50.822;7.126;2024-03-23T12:29:28;4.18;;;1.40;;
9140;SDS011;46330;50.822;7.126;2024-03-23T12:31:55;2.70;;;1.20;;
9140;SDS011;46330;50.822;7.126;2024-03-23T12:34:22;3.42;;;1.10;;
9140;SDS011;46330;50.822;7.126;2024-03-23T12:36:50;4.82;;;1.40;;
9140;SDS011;46330;50.822;7.126;2024-03-23T12:39:17;4.75;;;1.50;;
9140;SDS011;46330;50.822;7.126;2024-03-23T12:41:43;2.50;;;1.10;;
9140;SDS011;46330;50.822;7.126;2024-03-23T12:44:11;5.13;;;1.40;;
9140;SDS011;46330;50.822;7.126;2024-03-23T12:46:37;0.93;;;0.65;;
9140;SDS011;46330;50.822;7.126;2024-03-23T12:49:04;2.92;;;0.73;;
9140;SDS011;46330;50.822;7.126;2024-03-23T12:51:31;1.33;;;0.60;;
9140;SDS011;46330;50.822;7.126;2024-03-23T12:53:59;0.80;;;0.40;;
9140;SDS011;46330;50.822;7.126;2024-03-23T12:56:25;0.30;;;0.30;;
9140;SDS011;46330;50.822;7.126;2024-03-23T12:58:53;0.63;;;0.55;;
9140;SDS011;46330;50.822;7.126;2024-03-23T13:01:20;0.50;;;0.50;;
9140;SDS011;46330;50.822;7.126;2024-03-23T13:03:48;0.45;;;0.32;;
9140;SDS011;46330;50.822;7.126;2024-03-23T13:06:14;1.50;;;0.65;;
9140;SDS011;46330;50.822;7.126;2024-03-23T13:08:42;1.17;;;1.05;;
9140;SDS011;46330;50.822;7.126;2024-03-23T13:11:11;0.90;;;0.60;;
9140;SDS011;46330;50.822;7.126;2024-03-23T13:13:38;1.65;;;0.70;;
9140;SDS011;46330;50.822;7.126;2024-03-23T13:16:04;2.65;;;0.88;;
9140;SDS011;46330;50.822;7.126;2024-03-23T13:18:32;4.50;;;2.20;;
9140;SDS011;46330;50.822;7.126;2024-03-23T13:20:58;3.05;;;1.00;;
9140;SDS011;46330;50.822;7.126;2024-03-23T13:23:25;0.80;;;0.80;;
9140;SDS011;46330;50.822;7.126;2024-03-23T13:25:51;1.38;;;0.70;;
9140;SDS011;46330;50.822;7.126;2024-03-23T13:28:20;1.70;;;0.80;;
9140;SDS011;46330;50.822;7.126;2024-03-23T13:30:50;1.05;;;0.80;;
9140;SDS011;46330;50.822;7.126;2024-03-23T13:33:18;2.55;;;0.98;;
9140;SDS011;46330;50.822;7.126;2024-03-23T13:35:50;2.10;;;0.75;;
9140;SDS011;46330;50.822;7.126;2024-03-23T13:38:18;1.10;;;0.82;;
9140;SDS011;46330;50.822;7.126;2024-03-23T13:40:54;2.38;;;1.00;;
9140;SDS011;46330;50.822;7.126;2024-03-23T13:43:23;1.95;;;1.10;;
9140;SDS011;46330;50.822;7.126;2024-03-23T13:45:52;5.32;;;0.95;;
9140;SDS011;46330;50.822;7.126;2024-03-23T13:48:20;4.55;;;1.73;;
9140;SDS011;46330;50.822;7.126;2024-03-23T13:50:47;3.35;;;1.17;;
9140;SDS011;46330;50.822;7.126;2024-03-23T13:53:22;6.60;;;1.40;;
9140;SDS011;46330;50.822;7.126;2024-03-23T13:55:49;3.83;;;1.23;;
9140;SDS011;46330;50.822;7.126;2024-03-23T13:58:15;4.90;;;1.55;;
9140;SDS011;46330;50.822;7.126;2024-03-23T14:00:44;3.83;;;1.73;;
9140;SDS011;46330;50.822;7.126;2024-03-23T14:03:10;4.88;;;1.70;;
9140;SDS011;46330;50.822;7.126;2024-03-23T14:05:40;5.63;;;1.65;;
9140;SDS011;46330;50.822;7.126;2024-03-23T14:08:07;5.15;;;1.60;;
9140;SDS011;46330;50.822;7.126;2024-03-23T14:10:35;4.35;;;1.92;;
9140;SDS011;46330;50.822;7.126;2024-03-23T14:13:02;5.63;;;1.70;;
9140;SDS011;46330;50.822;7.126;2024-03-23T14:15:29;3.33;;;1.70;;
9140;SDS011;46330;50.822;7.126;2024-03-23T14:17:57;2.15;;;1.30;;
9140;SDS011;46330;50.822;7.126;2024-03-23T14:20:24;2.72;;;1.20;;
9140;SDS011;46330;50.822;7.126;2024-03-23T14:22:51;2.25;;;1.40;;
9140;SDS011;46330;50.822;7.126;2024-03-23T14:25:18;3.67;;;1.42;;
9140;SDS011;46330;50.822;7.126;2024-03-23T14:27:44;2.17;;;1.00;;
9140;SDS011;46330;50.822;7.126;2024-03-23T14:30:12;2.78;;;1.00;;
9140;SDS011;46330;50.822;7.126;2024-03-23T14:32:39;1.35;;;0.93;;
9140;SDS011;46330;50.822;7.126;2024-03-23T14:35:08;2.28;;;0.98;;
9140;SDS011;46330;50.822;7.126;2024-03-23T14:37:36;3.47;;;0.95;;
9140;SDS011;46330;50.822;7.126;2024-03-23T14:40:02;3.80;;;1.10;;
9140;SDS011;46330;50.822;7.126;2024-03-23T14:42:30;4.65;;;1.13;;
9140;SDS011;46330;50.822;7.126;2024-03-23T14:44:58;2.15;;;1.20;;
9140;SDS011;46330;50.822;7.126;2024-03-23T14:47:26;3.42;;;1.23;;
9140;SDS011;46330;50.822;7.126;2024-03-23T14:49:52;2.78;;;1.23;;
9140;SDS011;46330;50.822;7.126;2024-03-23T14:52:20;3.28;;;1.10;;
9140;SDS011;46330;50.822;7.126;2024-03-23T14:54:46;3.60;;;1.13;;
9140;SDS011;46330;50.822;7.126;2024-03-23T14:57:13;5.32;;;1.98;;
9140;SDS011;46330;50.822;7.126;2024-03-23T14:59:39;3.15;;;1.20;;
9140;SDS011;46330;50.822;7.126;2024-03-23T15:02:07;3.33;;;1.25;;
9140;SDS011;46330;50.822;7.126;2024-03-23T15:04:33;4.55;;;1.40;;
9140;SDS011;46330;50.822;7.126;2024-03-23T15:07:00;3.83;;;0.98;;
9140;SDS011;46330;50.822;7.126;2024-03-23T15:09:27;1.40;;;1.15;;
9140;SDS011;46330;50.822;7.126;2024-03-23T15:11:54;6.85;;;1.40;;
9140;SDS011;46330;50.822;7.126;2024-03-23T15:14:21;3.10;;;1.30;;
9140;SDS011;46330;50.822;7.126;2024-03-23T15:16:48;2.83;;;1.10;;
9140;SDS011;46330;50.822;7.126;2024-03-23T15:19:14;2.58;;;1.00;;
9140;SDS011;46330;50.822;7.126;2024-03-23T15:21:43;1.98;;;0.85;;
9140;SDS011;46330;50.822;7.126;2024-03-23T15:24:09;2.30;;;1.02;;
9140;SDS011;46330;50.822;7.126;2024-03-23T15:26:38;2.95;;;1.10;;
9140;SDS011;46330;50.822;7.126;2024-03-23T15:29:05;3.65;;;1.30;;
9140;SDS011;46330;50.822;7.126;2024-03-23T15:31:38;4.60;;;1.20;;
9140;SDS011;46330;50.822;7.126;2024-03-23T15:34:04;3.17;;;1.40;;
9140;SDS011;46330;50.822;7.126;2024-03-23T15:36:35;4.05;;;1.35;;
9140;SDS011;46330;50.822;7.126;2024-03-23T15:39:03;3.55;;;1.20;;
9140;SDS011;46330;50.822;7.126;2024-03-23T15:41:31;2.35;;;1.23;;
9140;SDS011;46330;50.822;7.126;2024-03-23T15:44:01;2.55;;;1.50;;
9140;SDS011;46330;50.822;7.126;2024-03-23T15:46:28;3.65;;;1.70;;
9140;SDS011;46330;50.822;7.126;2024-03-23T15:48:54;6.22;;;1.73;;
9140;SDS011;46330;50.822;7.126;2024-03-23T15:51:21;3.25;;;1.30;;
9140;SDS011;46330;50.822;7.126;2024-03-23T15:53:48;3.55;;;1.35;;
9140;SDS011;46330;50.822;7.126;2024-03-23T15:56:17;5.50;;;1.95;;
9140;SDS011;46330;50.822;7.126;2024-03-23T15:58:44;3.47;;;1.60;;
9140;SDS011;46330;50.822;7.126;2024-03-23T16:01:13;4.28;;;1.30;;
9140;SDS011;46330;50.822;7.126;2024-03-23T16:03:39;4.15;;;1.70;;
9140;SDS011;46330;50.822;7.126;2024-03-23T16:06:07;2.63;;;1.40;;
9140;SDS011;46330;50.822;7.126;2024-03-23T16:08:34;4.50;;;1.35;;
9140;SDS011;46330;50.822;7.126;2024-03-23T16:11:01;1.58;;;1.33;;
9140;SDS011;46330;50.822;7.126;2024-03-23T16:13:29;2.85;;;1.40;;
9140;SDS011;46330;50.822;7.126;2024-03-23T16:15:57;4.40;;;1.90;;
9140;SDS011;46330;50.822;7.126;2024-03-23T16:18:25;2.10;;;1.25;;
9140;SDS011;46330;50.822;7.126;2024-03-23T16:20:53;1.15;;;0.90;;
9140;SDS011;46330;50.822;7.126;2024-03-23T16:23:20;1.80;;;1.08;;
9140;SDS011;46330;50.822;7.126;2024-03-23T16:25:47;3.05;;;1.33;;
9140;SDS011;46330;50.822;7.126;2024-03-23T16:28:22;2.25;;;1.25;;
9140;SDS011;46330;50.822;7.126;2024-03-23T16:30:54;4.10;;;0.90;;
9140;SDS011;46330;50.822;7.126;2024-03-23T16:33:21;3.40;;;1.05;;
9140;SDS011;46330;50.822;7.126;2024-03-23T16:35:57;1.30;;;1.20;;
9140;SDS011;46330;50.822;7.126;2024-03-23T16:38:24;2.97;;;1.30;;
9140;SDS011;46330;50.822;7.126;2024-03-23T16:40:58;2.70;;;1.10;;